sensor_id;sensor_type;location;lat;lon;timestamp;P1;durP1;ratioP1;P2;durP2;ratioP2
13455;SDS011;6800;50.940;6.940;2023-07-31T00:02:41;8.68;;;4.22;;
13455;SDS011;6800;50.940;6.940;2023-07-31T00:06:42;8.75;;;5.68;;
13455;SDS011;6800;50.940;6.940;2023-07-31T00:10:44;7.50;;;4.13;;
13455;SDS011;6800;50.940;6.940;2023-07-31T00:14:45;5.20;;;3.42;;
13455;SDS011;6800;50.940;6.940;2023-07-31T00:18:47;9.45;;;4.25;;
13455;SDS011;6800;50.940;6.940;2023-07-31T00:22:48;8.25;;;5.60;;
13455;SDS011;6800;50.940;6.940;2023-07-31T00:26:49;5.72;;;4.18;;
13455;SDS011;6800;50.940;6.940;2023-07-31T00:30:51;7.45;;;3.90;;
13455;SDS011;6800;50.940;6.940;2023-07-31T00:34:52;7.00;;;3.88;;
13455;SDS011;6800;50.940;6.940;2023-07-31T00:38:53;5.78;;;3.45;;
13455;SDS011;6800;50.940;6.940;2023-07-31T00:42:55;5.97;;;3.50;;
13455;SDS011;6800;50.940;6.940;2023-07-31T00:46:56;6.43;;;3.72;;
13455;SDS011;6800;50.940;6.940;2023-07-31T00:51:00;6.28;;;3.47;;
13455;SDS011;6800;50.940;6.940;2023-07-31T00:55:02;7.68;;;3.92;;
13455;SDS011;6800;50.940;6.940;2023-07-31T00:59:04;7.07;;;3.22;;
13455;SDS011;6800;50.940;6.940;2023-07-31T01:03:05;8.02;;;3.72;;
13455;SDS011;6800;50.940;6.940;2023-07-31T01:07:11;4.85;;;3.03;;
13455;SDS011;6800;50.940;6.940;2023-07-31T01:11:25;5.15;;;3.10;;
13455;SDS011;6800;50.940;6.940;2023-07-31T01:15:29;8.25;;;3.42;;
13455;SDS011;6800;50.940;6.940;2023-07-31T01:19:30;4.25;;;2.78;;
13455;SDS011;6800;50.940;6.940;2023-07-31T01:23:40;8.07;;;3.20;;
13455;SDS011;6800;50.940;6.940;2023-07-31T01:28:11;6.93;;;3.15;;
13455;SDS011;6800;50.940;6.940;2023-07-31T01:32:16;4.07;;;2.60;;
13455;SDS011;6800;50.940;6.940;2023-07-31T01:36:19;7.60;;;3.00;;
13455;SDS011;6800;50.940;6.940;2023-07-31T01:40:21;5.32;;;2.90;;
13455;SDS011;6800;50.940;6.940;2023-07-31T01:44:22;4.60;;;3.00;;
13455;SDS011;6800;50.940;6.940;2023-07-31T01:48:24;5.15;;;3.03;;
13455;SDS011;6800;50.940;6.940;2023-07-31T01:52:25;4.00;;;3.00;;
13455;SDS011;6800;50.940;6.940;2023-07-31T01:56:27;6.03;;;3.13;;
13455;SDS011;6800;50.940;6.940;2023-07-31T02:00:28;6.45;;;3.50;;
13455;SDS011;6800;50.940;6.940;2023-07-31T02:04:29;5.65;;;3.42;;
13455;SDS011;6800;50.940;6.940;2023-07-31T02:08:31;4.57;;;3.13;;
13455;SDS011;6800;50.940;6.940;2023-07-31T02:12:32;4.63;;;2.85;;
13455;SDS011;6800;50.940;6.940;2023-07-31T02:16:34;7.05;;;3.13;;
13455;SDS011;6800;50.940;6.940;2023-07-31T02:20:36;6.38;;;3.38;;
13455;SDS011;6800;50.940;6.940;2023-07-31T02:24:37;4.78;;;3.20;;
13455;SDS011;6800;50.940;6.940;2023-07-31T02:28:39;6.43;;;3.13;;
13455;SDS011;6800;50.940;6.940;2023-07-31T02:32:40;6.20;;;3.05;;
13455;SDS011;6800;50.940;6.940;2023-07-31T02:36:41;4.88;;;3.08;;
13455;SDS011;6800;50.940;6.940;2023-07-31T02:40:43;6.28;;;3.10;;
13455;SDS011;6800;50.940;6.940;2023-07-31T02:44:44;4.85;;;3.22;;
13455;SDS011;6800;50.940;6.940;2023-07-31T02:48:46;6.30;;;3.83;;
13455;SDS011;6800;50.940;6.940;2023-07-31T02:52:47;6.18;;;3.70;;
13455;SDS011;6800;50.940;6.940;2023-07-31T02:56:48;5.43;;;3.33;;
13455;SDS011;6800;50.940;6.940;2023-07-31T03:00:50;5.95;;;3.08;;
13455;SDS011;6800;50.940;6.940;2023-07-31T03:04:51;7.70;;;3.75;;
13455;SDS011;6800;50.940;6.940;2023-07-31T03:08:53;7.65;;;3.75;;
13455;SDS011;6800;50.940;6.940;2023-07-31T03:12:54;4.65;;;3.28;;
13455;SDS011;6800;50.940;6.940;2023-07-31T03:16:56;8.57;;;3.97;;
13455;SDS011;6800;50.940;6.940;2023-07-31T03:20:58;6.55;;;3.70;;
13455;SDS011;6800;50.940;6.940;2023-07-31T03:24:59;6.68;;;3.88;;
13455;SDS011;6800;50.940;6.940;2023-07-31T03:29:00;6.45;;;3.70;;
13455;SDS011;6800;50.940;6.940;2023-07-31T03:33:02;5.65;;;3.60;;
13455;SDS011;6800;50.940;6.940;2023-07-31T03:37:03;5.53;;;3.33;;
13455;SDS011;6800;50.940;6.940;2023-07-31T03:41:06;7.85;;;4.00;;
13455;SDS011;6800;50.940;6.940;2023-07-31T03:45:07;6.57;;;3.90;;
13455;SDS011;6800;50.940;6.940;2023-07-31T03:49:09;5.55;;;3.47;;
13455;SDS011;6800;50.940;6.940;2023-07-31T03:53:11;6.70;;;3.80;;
13455;SDS011;6800;50.940;6.940;2023-07-31T03:57:13;7.53;;;3.88;;
13455;SDS011;6800;50.940;6.940;2023-07-31T04:01:14;6.90;;;4.05;;
13455;SDS011;6800;50.940;6.940;2023-07-31T04:05:15;8.88;;;4.57;;
13455;SDS011;6800;50.940;6.940;2023-07-31T04:09:17;6.97;;;4.30;;
13455;SDS011;6800;50.940;6.940;2023-07-31T04:13:19;8.32;;;4.95;;
13455;SDS011;6800;50.940;6.940;2023-07-31T04:17:20;5.63;;;4.20;;
13455;SDS011;6800;50.940;6.940;2023-07-31T04:21:22;7.80;;;3.85;;
13455;SDS011;6800;50.940;6.940;2023-07-31T04:25:23;6.57;;;3.88;;
13455;SDS011;6800;50.940;6.940;2023-07-31T04:29:25;6.07;;;3.85;;
13455;SDS011;6800;50.940;6.940;2023-07-31T04:33:26;7.18;;;4.20;;
13455;SDS011;6800;50.940;6.940;2023-07-31T04:37:27;5.78;;;3.95;;
13455;SDS011;6800;50.940;6.940;2023-07-31T04:41:29;7.60;;;4.03;;
13455;SDS011;6800;50.940;6.940;2023-07-31T04:45:30;6.85;;;4.22;;
13455;SDS011;6800;50.940;6.940;2023-07-31T04:49:32;4.40;;;3.65;;
13455;SDS011;6800;50.940;6.940;2023-07-31T04:53:35;5.20;;;3.88;;
13455;SDS011;6800;50.940;6.940;2023-07-31T04:57:38;5.75;;;4.35;;
13455;SDS011;6800;50.940;6.940;2023-07-31T05:01:39;5.15;;;3.92;;
13455;SDS011;6800;50.940;6.940;2023-07-31T05:05:40;6.03;;;4.40;;
13455;SDS011;6800;50.940;6.940;2023-07-31T05:09:42;6.88;;;4.55;;
13455;SDS011;6800;50.940;6.940;2023-07-31T05:13:43;5.90;;;4.30;;
13455;SDS011;6800;50.940;6.940;2023-07-31T05:17:45;6.22;;;3.95;;
13455;SDS011;6800;50.940;6.940;2023-07-31T05:21:46;4.75;;;3.75;;
13455;SDS011;6800;50.940;6.940;2023-07-31T05:25:48;6.00;;;4.47;;
13455;SDS011;6800;50.940;6.940;2023-07-31T05:29:49;5.43;;;4.15;;
13455;SDS011;6800;50.940;6.940;2023-07-31T05:33:50;6.18;;;4.50;;
13455;SDS011;6800;50.940;6.940;2023-07-31T05:37:52;6.30;;;4.00;;
13455;SDS011;6800;50.940;6.940;2023-07-31T05:41:54;5.47;;;3.88;;
13455;SDS011;6800;50.940;6.940;2023-07-31T05:45:55;6.38;;;4.32;;
13455;SDS011;6800;50.940;6.940;2023-07-31T05:49:56;4.68;;;4.22;;
13455;SDS011;6800;50.940;6.940;2023-07-31T05:53:58;5.22;;;3.92;;
13455;SDS011;6800;50.940;6.940;2023-07-31T05:57:59;6.40;;;4.68;;
13455;SDS011;6800;50.940;6.940;2023-07-31T06:02:01;5.30;;;4.13;;
13455;SDS011;6800;50.940;6.940;2023-07-31T06:06:03;6.68;;;4.90;;
13455;SDS011;6800;50.940;6.940;2023-07-31T06:10:05;8.68;;;5.10;;
13455;SDS011;6800;50.940;6.940;2023-07-31T06:14:07;5.10;;;4.60;;
13455;SDS011;6800;50.940;6.940;2023-07-31T06:18:08;7.32;;;5.00;;
13455;SDS011;6800;50.940;6.940;2023-07-31T06:22:09;8.10;;;5.50;;
13455;SDS011;6800;50.940;6.940;2023-07-31T06:26:11;8.48;;;5.70;;
13455;SDS011;6800;50.940;6.940;2023-07-31T06:30:12;7.63;;;5.80;;
13455;SDS011;6800;50.940;6.940;2023-07-31T06:34:13;6.47;;;5.10;;
13455;SDS011;6800;50.940;6.940;2023-07-31T06:38:15;7.15;;;5.60;;
13455;SDS011;6800;50.940;6.940;2023-07-31T06:42:16;8.95;;;4.47;;
13455;SDS011;6800;50.940;6.940;2023-07-31T06:46:18;5.72;;;4.82;;
13455;SDS011;6800;50.940;6.940;2023-07-31T06:50:19;6.80;;;4.80;;
13455;SDS011;6800;50.940;6.940;2023-07-31T06:54:20;6.55;;;4.30;;
13455;SDS011;6800;50.940;6.940;2023-07-31T06:58:24;6.85;;;4.35;;
13455;SDS011;6800;50.940;6.940;2023-07-31T07:02:25;6.47;;;4.22;;
13455;SDS011;6800;50.940;6.940;2023-07-31T07:06:27;7.05;;;4.00;;
13455;SDS011;6800;50.940;6.940;2023-07-31T07:10:28;6.57;;;4.20;;
13455;SDS011;6800;50.940;6.940;2023-07-31T07:14:30;4.88;;;3.95;;
13455;SDS011;6800;50.940;6.940;2023-07-31T07:18:31;5.70;;;4.35;;
13455;SDS011;6800;50.940;6.940;2023-07-31T07:22:33;5.78;;;3.70;;
13455;SDS011;6800;50.940;6.940;2023-07-31T07:26:34;5.38;;;4.03;;
13455;SDS011;6800;50.940;6.940;2023-07-31T07:30:35;6.75;;;3.90;;
13455;SDS011;6800;50.940;6.940;2023-07-31T07:34:37;6.70;;;4.22;;
13455;SDS011;6800;50.940;6.940;2023-07-31T07:38:39;5.07;;;4.22;;
13455;SDS011;6800;50.940;6.940;2023-07-31T07:42:40;7.68;;;4.60;;
13455;SDS011;6800;50.940;6.940;2023-07-31T07:46:41;9.25;;;4.78;;
13455;SDS011;6800;50.940;6.940;2023-07-31T07:50:43;6.72;;;4.78;;
13455;SDS011;6800;50.940;6.940;2023-07-31T07:54:45;6.22;;;5.03;;
13455;SDS011;6800;50.940;6.940;2023-07-31T07:58:48;7.57;;;5.57;;
13455;SDS011;6800;50.940;6.940;2023-07-31T08:02:51;8.40;;;5.35;;
13455;SDS011;6800;50.940;6.940;2023-07-31T08:06:52;6.57;;;5.10;;
13455;SDS011;6800;50.940;6.940;2023-07-31T08:10:54;7.53;;;5.00;;
13455;SDS011;6800;50.940;6.940;2023-07-31T08:14:55;7.50;;;4.25;;
13455;SDS011;6800;50.940;6.940;2023-07-31T08:18:57;5.63;;;4.10;;
13455;SDS011;6800;50.940;6.940;2023-07-31T08:22:58;4.78;;;3.63;;
13455;SDS011;6800;50.940;6.940;2023-07-31T08:26:59;4.68;;;3.55;;
13455;SDS011;6800;50.940;6.940;2023-07-31T08:31:01;5.05;;;3.92;;
13455;SDS011;6800;50.940;6.940;2023-07-31T08:35:02;5.57;;;3.97;;
13455;SDS011;6800;50.940;6.940;2023-07-31T08:39:04;6.05;;;3.90;;
13455;SDS011;6800;50.940;6.940;2023-07-31T08:43:05;5.60;;;3.80;;
13455;SDS011;6800;50.940;6.940;2023-07-31T08:47:08;5.03;;;4.30;;
13455;SDS011;6800;50.940;6.940;2023-07-31T08:51:10;5.78;;;3.50;;
13455;SDS011;6800;50.940;6.940;2023-07-31T08:55:12;5.93;;;3.78;;
13455;SDS011;6800;50.940;6.940;2023-07-31T08:59:14;7.05;;;4.13;;
13455;SDS011;6800;50.940;6.940;2023-07-31T09:03:18;6.47;;;3.80;;
13455;SDS011;6800;50.940;6.940;2023-07-31T09:07:20;5.88;;;4.07;;
13455;SDS011;6800;50.940;6.940;2023-07-31T09:11:22;11.65;;;5.57;;
13455;SDS011;6800;50.940;6.940;2023-07-31T09:15:27;8.57;;;4.93;;
13455;SDS011;6800;50.940;6.940;2023-07-31T09:19:38;5.05;;;4.35;;
13455;SDS011;6800;50.940;6.940;2023-07-31T09:23:43;6.68;;;4.95;;
13455;SDS011;6800;50.940;6.940;2023-07-31T09:27:47;6.78;;;4.45;;
13455;SDS011;6800;50.940;6.940;2023-07-31T09:31:53;8.60;;;4.85;;
13455;SDS011;6800;50.940;6.940;2023-07-31T09:35:55;6.20;;;3.75;;
13455;SDS011;6800;50.940;6.940;2023-07-31T09:39:59;9.18;;;3.88;;
13455;SDS011;6800;50.940;6.940;2023-07-31T09:44:00;7.05;;;3.33;;
13455;SDS011;6800;50.940;6.940;2023-07-31T09:48:02;4.28;;;3.40;;
13455;SDS011;6800;50.940;6.940;2023-07-31T09:52:09;7.47;;;3.75;;
13455;SDS011;6800;50.940;6.940;2023-07-31T09:56:13;4.72;;;3.30;;
13455;SDS011;6800;50.940;6.940;2023-07-31T10:00:15;6.10;;;3.35;;
13455;SDS011;6800;50.940;6.940;2023-07-31T10:04:19;6.20;;;3.53;;
13455;SDS011;6800;50.940;6.940;2023-07-31T10:08:27;8.05;;;4.53;;
13455;SDS011;6800;50.940;6.940;2023-07-31T10:12:31;9.88;;;4.35;;
13455;SDS011;6800;50.940;6.940;2023-07-31T10:16:37;4.82;;;4.32;;
13455;SDS011;6800;50.940;6.940;2023-07-31T10:20:40;4.05;;;3.35;;
13455;SDS011;6800;50.940;6.940;2023-07-31T10:24:42;5.07;;;3.60;;
13455;SDS011;6800;50.940;6.940;2023-07-31T10:28:44;3.63;;;3.25;;
13455;SDS011;6800;50.940;6.940;2023-07-31T10:32:48;5.57;;;4.13;;
13455;SDS011;6800;50.940;6.940;2023-07-31T10:37:12;5.13;;;4.57;;
13455;SDS011;6800;50.940;6.940;2023-07-31T10:41:28;4.07;;;3.67;;
13455;SDS011;6800;50.940;6.940;2023-07-31T10:45:36;5.18;;;3.25;;
13455;SDS011;6800;50.940;6.940;2023-07-31T10:49:38;5.03;;;3.15;;
13455;SDS011;6800;50.940;6.940;2023-07-31T10:53:40;8.38;;;3.20;;
13455;SDS011;6800;50.940;6.940;2023-07-31T10:57:44;3.92;;;3.05;;
13455;SDS011;6800;50.940;6.940;2023-07-31T11:01:56;3.55;;;2.80;;
13455;SDS011;6800;50.940;6.940;2023-07-31T11:10:02;2.15;;;2.00;;
13455;SDS011;6800;50.940;6.940;2023-07-31T11:14:03;1.85;;;1.75;;
13455;SDS011;6800;50.940;6.940;2023-07-31T11:18:05;3.67;;;2.28;;
13455;SDS011;6800;50.940;6.940;2023-07-31T11:22:07;3.65;;;1.83;;
13455;SDS011;6800;50.940;6.940;2023-07-31T11:26:08;5.35;;;2.22;;
13455;SDS011;6800;50.940;6.940;2023-07-31T11:30:10;4.43;;;2.60;;
13455;SDS011;6800;50.940;6.940;2023-07-31T11:34:12;2.90;;;1.90;;
13455;SDS011;6800;50.940;6.940;2023-07-31T11:38:29;1.98;;;1.48;;
13455;SDS011;6800;50.940;6.940;2023-07-31T11:42:35;1.80;;;1.50;;
13455;SDS011;6800;50.940;6.940;2023-07-31T11:46:37;5.10;;;1.63;;
13455;SDS011;6800;50.940;6.940;2023-07-31T11:50:40;5.28;;;1.65;;
13455;SDS011;6800;50.940;6.940;2023-07-31T11:54:41;2.38;;;1.70;;
13455;SDS011;6800;50.940;6.940;2023-07-31T11:58:44;2.97;;;2.78;;
13455;SDS011;6800;50.940;6.940;2023-07-31T12:02:50;4.70;;;4.30;;
13455;SDS011;6800;50.940;6.940;2023-07-31T12:06:52;2.60;;;2.40;;
13455;SDS011;6800;50.940;6.940;2023-07-31T12:11:02;1.60;;;1.50;;
13455;SDS011;6800;50.940;6.940;2023-07-31T12:15:16;10.50;;;8.95;;
13455;SDS011;6800;50.940;6.940;2023-07-31T12:19:18;11.13;;;9.93;;
13455;SDS011;6800;50.940;6.940;2023-07-31T12:23:21;4.60;;;3.30;;
13455;SDS011;6800;50.940;6.940;2023-07-31T12:27:32;2.00;;;1.80;;
13455;SDS011;6800;50.940;6.940;2023-07-31T12:31:34;1.67;;;1.58;;
13455;SDS011;6800;50.940;6.940;2023-07-31T12:35:40;3.85;;;1.80;;
13455;SDS011;6800;50.940;6.940;2023-07-31T12:39:42;1.73;;;1.63;;
13455;SDS011;6800;50.940;6.940;2023-07-31T12:43:44;2.08;;;1.95;;
13455;SDS011;6800;50.940;6.940;2023-07-31T12:47:46;4.50;;;2.25;;
13455;SDS011;6800;50.940;6.940;2023-07-31T12:51:48;3.15;;;2.40;;
13455;SDS011;6800;50.940;6.940;2023-07-31T12:55:49;6.53;;;3.38;;
13455;SDS011;6800;50.940;6.940;2023-07-31T12:59:51;2.55;;;2.25;;
13455;SDS011;6800;50.940;6.940;2023-07-31T13:03:52;4.45;;;2.50;;
13455;SDS011;6800;50.940;6.940;2023-07-31T13:07:54;3.47;;;2.50;;
13455;SDS011;6800;50.940;6.940;2023-07-31T13:11:55;4.32;;;2.70;;
13455;SDS011;6800;50.940;6.940;2023-07-31T13:15:57;6.95;;;6.25;;
13455;SDS011;6800;50.940;6.940;2023-07-31T13:19:58;2.92;;;2.53;;
13455;SDS011;6800;50.940;6.940;2023-07-31T13:24:02;3.15;;;2.95;;
13455;SDS011;6800;50.940;6.940;2023-07-31T13:28:04;3.50;;;3.20;;
13455;SDS011;6800;50.940;6.940;2023-07-31T13:32:06;3.42;;;3.13;;
13455;SDS011;6800;50.940;6.940;2023-07-31T13:36:07;3.70;;;3.40;;
13455;SDS011;6800;50.940;6.940;2023-07-31T13:40:09;6.00;;;4.88;;
13455;SDS011;6800;50.940;6.940;2023-07-31T13:44:11;2.90;;;2.70;;
13455;SDS011;6800;50.940;6.940;2023-07-31T13:48:12;4.03;;;2.95;;
13455;SDS011;6800;50.940;6.940;2023-07-31T13:52:14;5.00;;;4.50;;
13455;SDS011;6800;50.940;6.940;2023-07-31T13:56:16;7.20;;;5.80;;
13455;SDS011;6800;50.940;6.940;2023-07-31T14:00:17;3.88;;;3.58;;
13455;SDS011;6800;50.940;6.940;2023-07-31T14:04:18;3.80;;;3.50;;
13455;SDS011;6800;50.940;6.940;2023-07-31T14:08:20;3.45;;;3.10;;
13455;SDS011;6800;50.940;6.940;2023-07-31T14:12:21;3.50;;;3.20;;
13455;SDS011;6800;50.940;6.940;2023-07-31T14:16:42;4.07;;;3.67;;
13455;SDS011;6800;50.940;6.940;2023-07-31T14:20:44;4.70;;;3.47;;
13455;SDS011;6800;50.940;6.940;2023-07-31T14:24:45;3.30;;;3.00;;
13455;SDS011;6800;50.940;6.940;2023-07-31T14:28:47;3.38;;;3.13;;
13455;SDS011;6800;50.940;6.940;2023-07-31T14:32:48;3.78;;;3.47;;
13455;SDS011;6800;50.940;6.940;2023-07-31T14:36:50;4.00;;;3.60;;
13455;SDS011;6800;50.940;6.940;2023-07-31T14:40:51;4.07;;;3.42;;
13455;SDS011;6800;50.940;6.940;2023-07-31T14:44:52;3.97;;;3.67;;
13455;SDS011;6800;50.940;6.940;2023-07-31T14:48:54;3.75;;;3.47;;
13455;SDS011;6800;50.940;6.940;2023-07-31T14:52:55;4.32;;;3.92;;
13455;SDS011;6800;50.940;6.940;2023-07-31T14:56:56;4.50;;;4.10;;
13455;SDS011;6800;50.940;6.940;2023-07-31T15:00:58;4.45;;;4.05;;
13455;SDS011;6800;50.940;6.940;2023-07-31T15:04:59;5.38;;;4.78;;
13455;SDS011;6800;50.940;6.940;2023-07-31T15:09:01;4.88;;;4.40;;
13455;SDS011;6800;50.940;6.940;2023-07-31T15:13:02;4.35;;;3.95;;
13455;SDS011;6800;50.940;6.940;2023-07-31T15:17:03;4.63;;;4.18;;
13455;SDS011;6800;50.940;6.940;2023-07-31T15:21:05;4.97;;;4.43;;
13455;SDS011;6800;50.940;6.940;2023-07-31T15:25:08;4.30;;;3.90;;
13455;SDS011;6800;50.940;6.940;2023-07-31T15:29:09;4.95;;;4.45;;
13455;SDS011;6800;50.940;6.940;2023-07-31T15:33:12;4.95;;;4.55;;
13455;SDS011;6800;50.940;6.940;2023-07-31T15:37:14;5.15;;;4.20;;
13455;SDS011;6800;50.940;6.940;2023-07-31T15:41:15;4.55;;;4.15;;
13455;SDS011;6800;50.940;6.940;2023-07-31T15:45:17;4.80;;;4.40;;
13455;SDS011;6800;50.940;6.940;2023-07-31T15:49:19;5.28;;;4.78;;
13455;SDS011;6800;50.940;6.940;2023-07-31T15:53:20;5.55;;;5.05;;
13455;SDS011;6800;50.940;6.940;2023-07-31T15:57:21;4.90;;;4.47;;
13455;SDS011;6800;50.940;6.940;2023-07-31T16:01:23;4.82;;;4.32;;
13455;SDS011;6800;50.940;6.940;2023-07-31T16:05:24;4.78;;;4.32;;
13455;SDS011;6800;50.940;6.940;2023-07-31T16:09:26;4.63;;;4.22;;
13455;SDS011;6800;50.940;6.940;2023-07-31T16:13:27;5.93;;;5.13;;
13455;SDS011;6800;50.940;6.940;2023-07-31T16:17:28;5.70;;;5.10;;
13455;SDS011;6800;50.940;6.940;2023-07-31T16:21:30;4.78;;;4.38;;
13455;SDS011;6800;50.940;6.940;2023-07-31T16:25:31;4.95;;;3.95;;
13455;SDS011;6800;50.940;6.940;2023-07-31T16:29:33;4.82;;;4.30;;
13455;SDS011;6800;50.940;6.940;2023-07-31T16:33:34;5.47;;;4.22;;
13455;SDS011;6800;50.940;6.940;2023-07-31T16:37:35;6.80;;;4.47;;
13455;SDS011;6800;50.940;6.940;2023-07-31T16:41:38;4.57;;;4.18;;
13455;SDS011;6800;50.940;6.940;2023-07-31T16:45:39;5.93;;;5.43;;
13455;SDS011;6800;50.940;6.940;2023-07-31T16:49:41;6.80;;;6.22;;
13455;SDS011;6800;50.940;6.940;2023-07-31T16:53:42;7.20;;;6.20;;
13455;SDS011;6800;50.940;6.940;2023-07-31T16:57:44;6.13;;;5.63;;
13455;SDS011;6800;50.940;6.940;2023-07-31T17:01:49;7.53;;;6.07;;
13455;SDS011;6800;50.940;6.940;2023-07-31T17:05:50;5.68;;;5.03;;
13455;SDS011;6800;50.940;6.940;2023-07-31T17:09:51;5.45;;;4.95;;
13455;SDS011;6800;50.940;6.940;2023-07-31T17:13:55;5.43;;;4.55;;
13455;SDS011;6800;50.940;6.940;2023-07-31T17:17:56;6.03;;;4.97;;
13455;SDS011;6800;50.940;6.940;2023-07-31T17:21:57;7.90;;;5.65;;
13455;SDS011;6800;50.940;6.940;2023-07-31T17:25:59;7.13;;;5.55;;
13455;SDS011;6800;50.940;6.940;2023-07-31T17:30:00;5.90;;;5.30;;
13455;SDS011;6800;50.940;6.940;2023-07-31T17:34:02;6.13;;;5.20;;
13455;SDS011;6800;50.940;6.940;2023-07-31T17:38:05;7.03;;;6.32;;
13455;SDS011;6800;50.940;6.940;2023-07-31T17:42:06;7.55;;;6.55;;
13455;SDS011;6800;50.940;6.940;2023-07-31T17:46:07;7.60;;;6.65;;
13455;SDS011;6800;50.940;6.940;2023-07-31T17:50:09;8.75;;;6.65;;
13455;SDS011;6800;50.940;6.940;2023-07-31T17:54:11;6.60;;;5.90;;
13455;SDS011;6800;50.940;6.940;2023-07-31T17:58:12;9.15;;;7.10;;
13455;SDS011;6800;50.940;6.940;2023-07-31T18:02:13;7.82;;;6.63;;
13455;SDS011;6800;50.940;6.940;2023-07-31T18:06:15;8.18;;;6.53;;
13455;SDS011;6800;50.940;6.940;2023-07-31T18:10:16;8.90;;;6.55;;
13455;SDS011;6800;50.940;6.940;2023-07-31T18:14:18;7.18;;;6.10;;
13455;SDS011;6800;50.940;6.940;2023-07-31T18:18:22;8.77;;;6.10;;
13455;SDS011;6800;50.940;6.940;2023-07-31T18:22:23;6.97;;;5.35;;
13455;SDS011;6800;50.940;6.940;2023-07-31T18:26:25;6.25;;;5.18;;
13455;SDS011;6800;50.940;6.940;2023-07-31T18:30:26;7.32;;;5.13;;
13455;SDS011;6800;50.940;6.940;2023-07-31T18:34:29;7.93;;;5.00;;
13455;SDS011;6800;50.940;6.940;2023-07-31T18:38:31;4.93;;;4.32;;
13455;SDS011;6800;50.940;6.940;2023-07-31T18:42:33;5.07;;;4.40;;
13455;SDS011;6800;50.940;6.940;2023-07-31T18:46:34;5.32;;;4.50;;
13455;SDS011;6800;50.940;6.940;2023-07-31T18:50:40;7.07;;;5.07;;
13455;SDS011;6800;50.940;6.940;2023-07-31T18:54:43;5.70;;;3.67;;
13455;SDS011;6800;50.940;6.940;2023-07-31T18:58:44;6.13;;;4.90;;
13455;SDS011;6800;50.940;6.940;2023-07-31T19:02:45;4.82;;;3.22;;
13455;SDS011;6800;50.940;6.940;2023-07-31T19:06:47;5.50;;;3.30;;
13455;SDS011;6800;50.940;6.940;2023-07-31T19:10:49;3.50;;;2.63;;
13455;SDS011;6800;50.940;6.940;2023-07-31T19:14:50;4.35;;;3.30;;
13455;SDS011;6800;50.940;6.940;2023-07-31T19:18:51;4.00;;;2.75;;
13455;SDS011;6800;50.940;6.940;2023-07-31T19:22:53;3.40;;;2.67;;
13455;SDS011;6800;50.940;6.940;2023-07-31T19:26:55;3.80;;;2.60;;
13455;SDS011;6800;50.940;6.940;2023-07-31T19:30:57;4.13;;;2.72;;
13455;SDS011;6800;50.940;6.940;2023-07-31T19:34:58;1.73;;;1.60;;
13455;SDS011;6800;50.940;6.940;2023-07-31T19:39:00;2.42;;;1.77;;
13455;SDS011;6800;50.940;6.940;2023-07-31T19:43:01;3.17;;;1.80;;
13455;SDS011;6800;50.940;6.940;2023-07-31T19:47:03;2.53;;;2.13;;
13455;SDS011;6800;50.940;6.940;2023-07-31T19:51:06;2.45;;;2.25;;
13455;SDS011;6800;50.940;6.940;2023-07-31T19:55:07;4.85;;;3.17;;
13455;SDS011;6800;50.940;6.940;2023-07-31T19:59:10;2.33;;;2.05;;
13455;SDS011;6800;50.940;6.940;2023-07-31T20:03:11;3.85;;;2.33;;
13455;SDS011;6800;50.940;6.940;2023-07-31T20:07:13;2.42;;;2.00;;
13455;SDS011;6800;50.940;6.940;2023-07-31T20:11:14;1.98;;;1.70;;
13455;SDS011;6800;50.940;6.940;2023-07-31T20:15:22;4.65;;;3.95;;
13455;SDS011;6800;50.940;6.940;2023-07-31T20:19:24;3.30;;;2.67;;
13455;SDS011;6800;50.940;6.940;2023-07-31T20:23:25;3.30;;;2.30;;
13455;SDS011;6800;50.940;6.940;2023-07-31T20:27:43;3.13;;;2.50;;
13455;SDS011;6800;50.940;6.940;2023-07-31T20:31:44;2.13;;;1.90;;
13455;SDS011;6800;50.940;6.940;2023-07-31T20:35:46;2.30;;;1.90;;
13455;SDS011;6800;50.940;6.940;2023-07-31T20:39:47;2.88;;;2.05;;
13455;SDS011;6800;50.940;6.940;2023-07-31T20:43:49;2.55;;;1.73;;
13455;SDS011;6800;50.940;6.940;2023-07-31T20:47:50;1.85;;;1.50;;
13455;SDS011;6800;50.940;6.940;2023-07-31T20:51:51;1.50;;;1.40;;
13455;SDS011;6800;50.940;6.940;2023-07-31T20:55:53;2.28;;;1.48;;
13455;SDS011;6800;50.940;6.940;2023-07-31T20:59:54;2.55;;;1.63;;
13455;SDS011;6800;50.940;6.940;2023-07-31T21:03:55;2.65;;;2.25;;
13455;SDS011;6800;50.940;6.940;2023-07-31T21:07:58;3.35;;;2.10;;
13455;SDS011;6800;50.940;6.940;2023-07-31T21:12:00;1.95;;;1.73;;
13455;SDS011;6800;50.940;6.940;2023-07-31T21:16:01;1.92;;;1.33;;
13455;SDS011;6800;50.940;6.940;2023-07-31T21:20:03;2.15;;;1.50;;
13455;SDS011;6800;50.940;6.940;2023-07-31T21:24:05;1.83;;;1.45;;
13455;SDS011;6800;50.940;6.940;2023-07-31T21:28:06;2.28;;;1.30;;
13455;SDS011;6800;50.940;6.940;2023-07-31T21:32:08;1.40;;;1.20;;
13455;SDS011;6800;50.940;6.940;2023-07-31T21:36:11;2.33;;;1.23;;
13455;SDS011;6800;50.940;6.940;2023-07-31T21:40:12;1.55;;;1.20;;
13455;SDS011;6800;50.940;6.940;2023-07-31T21:44:14;1.20;;;1.00;;
13455;SDS011;6800;50.940;6.940;2023-07-31T21:48:15;1.83;;;1.13;;
13455;SDS011;6800;50.940;6.940;2023-07-31T21:52:17;0.85;;;0.73;;
13455;SDS011;6800;50.940;6.940;2023-07-31T21:56:18;1.17;;;0.98;;
13455;SDS011;6800;50.940;6.940;2023-07-31T22:00:21;1.40;;;1.30;;
13455;SDS011;6800;50.940;6.940;2023-07-31T22:04:22;2.00;;;1.67;;
13455;SDS011;6800;50.940;6.940;2023-07-31T22:08:24;1.95;;;1.58;;
13455;SDS011;6800;50.940;6.940;2023-07-31T22:12:25;1.83;;;1.63;;
13455;SDS011;6800;50.940;6.940;2023-07-31T22:16:27;4.30;;;1.95;;
13455;SDS011;6800;50.940;6.940;2023-07-31T22:20:28;1.95;;;1.67;;
13455;SDS011;6800;50.940;6.940;2023-07-31T22:24:29;2.70;;;1.88;;
13455;SDS011;6800;50.940;6.940;2023-07-31T22:28:31;4.55;;;1.80;;
13455;SDS011;6800;50.940;6.940;2023-07-31T22:32:32;1.60;;;1.50;;
13455;SDS011;6800;50.940;6.940;2023-07-31T22:36:34;5.55;;;2.03;;
13455;SDS011;6800;50.940;6.940;2023-07-31T22:40:35;2.85;;;1.30;;
13455;SDS011;6800;50.940;6.940;2023-07-31T22:44:37;2.30;;;1.50;;
13455;SDS011;6800;50.940;6.940;2023-07-31T22:48:38;2.47;;;1.60;;
13455;SDS011;6800;50.940;6.940;2023-07-31T22:52:39;2.90;;;2.20;;
13455;SDS011;6800;50.940;6.940;2023-07-31T22:56:41;3.80;;;2.10;;
13455;SDS011;6800;50.940;6.940;2023-07-31T23:00:43;3.38;;;2.05;;
13455;SDS011;6800;50.940;6.940;2023-07-31T23:04:45;2.13;;;1.83;;
13455;SDS011;6800;50.940;6.940;2023-07-31T23:08:46;2.65;;;2.25;;
13455;SDS011;6800;50.940;6.940;2023-07-31T23:12:47;2.70;;;2.30;;
13455;SDS011;6800;50.940;6.940;2023-07-31T23:16:49;2.55;;;2.35;;
13455;SDS011;6800;50.940;6.940;2023-07-31T23:20:50;2.70;;;2.42;;
13455;SDS011;6800;50.940;6.940;2023-07-31T23:24:54;3.83;;;2.30;;
13455;SDS011;6800;50.940;6.940;2023-07-31T23:28:55;1.90;;;1.70;;
13455;SDS011;6800;50.940;6.940;2023-07-31T23:32:58;2.75;;;1.73;;
13455;SDS011;6800;50.940;6.940;2023-07-31T23:37:00;3.30;;;2.00;;
13455;SDS011;6800;50.940;6.940;2023-07-31T23:41:01;2.50;;;2.30;;
13455;SDS011;6800;50.940;6.940;2023-07-31T23:45:03;2.58;;;2.38;;
13455;SDS011;6800;50.940;6.940;2023-07-31T23:49:12;2.95;;;1.85;;
13455;SDS011;6800;50.940;6.940;2023-07-31T23:53:14;2.40;;;1.60;;
13455;SDS011;6800;50.940;6.940;2023-07-31T23:57:16;2.40;;;1.73;;
